Aérodrome :
LOGIN :

S'inscrire | Disclaimer

   EN    FR    IT 

 










Légende :    VFR   VFR Marginal   IFR   IFR Intensif   IFR Très Intensif
Visi : 
Plafond : 
>= 8 km
>= 3000ft
5 à 8 km
1000 à 3000 ft
1500m à 5 km
500 à 1000 ft
800 à 1500m
200 à 500 ft
< 800m
< 200 ft
Symboles :   Orages  Brouillard  Fortes neiges  Fortes précipitations  Vent > 20 kt
SIGMETs :   Divers  Orages  Givrage  Turbulence  Onde Orograph.  Cendres Volcan.







- Altitude de l'aérodrome : 465 ft
- Code IATA : LEJ


EDDP - Leipzig Halle

DERNIER METAR :
  • 281720Z 25007KT CAVOK 15/02 Q1019 NOSIG

METARs EXPIRÉS :
  • 281650Z 25009KT CAVOK 17/01 Q1019 NOSIG
  • 281620Z 25011KT CAVOK 19/00 Q1019 NOSIG
  • 281550Z 25010KT CAVOK 20/M01 Q1019 NOSIG
  • 281520Z 25010KT 220V280 CAVOK 20/00 Q1019 NOSIG
  • 281450Z 25008KT 210V280 CAVOK 20/00 Q1019 NOSIG

TAF TAF EDDP
Valide du 28 à 18h jusqu'au 29 à 18h UTC


281700Z 2818/2918 24010KT CAVOK
BECMG 2906/2909 25015G25KT
BECMG 2915/2918 27010KT
Pas de NOTAMs connus pour ce terrain.



MET'MAP, la Météo Aéronautique d'un coup d'oeil ! - Copyright ORBIFLY Décembre 2007 - Disclaimer

ORBIFLY MET'MAP TEAM :

Programmation & Développement : Alexandra Zaïnal
Conception & Développement : Baudouin d'Aumeries
Co-Programmation & Développement : Marc-Olivier Méhu
Soutien technique & logistique : Manuel Goepfert

Contact : metmap@orbifly.com




SOURCES & CREDITS :

   NOAA